sensor_id;sensor_type;location;lat;lon;timestamp;P1;durP1;ratioP1;P2;durP2;ratioP2
3359;SDS011;1693;49.602;11.046;2023-08-30T00:00:30;5.17;;;4.20;;
3359;SDS011;1693;49.602;11.046;2023-08-30T00:02:57;5.00;;;4.40;;
3359;SDS011;1693;49.602;11.046;2023-08-30T00:05:25;5.60;;;4.97;;
3359;SDS011;1693;49.602;11.046;2023-08-30T00:07:52;7.70;;;5.07;;
3359;SDS011;1693;49.602;11.046;2023-08-30T00:10:20;7.30;;;5.70;;
3359;SDS011;1693;49.602;11.046;2023-08-30T00:12:48;4.80;;;4.40;;
3359;SDS011;1693;49.602;11.046;2023-08-30T00:15:16;7.30;;;4.90;;
3359;SDS011;1693;49.602;11.046;2023-08-30T00:17:43;6.93;;;4.97;;
3359;SDS011;1693;49.602;11.046;2023-08-30T00:20:11;5.17;;;4.67;;
3359;SDS011;1693;49.602;11.046;2023-08-30T00:22:38;8.43;;;4.50;;
3359;SDS011;1693;49.602;11.046;2023-08-30T00:25:06;8.80;;;4.83;;
3359;SDS011;1693;49.602;11.046;2023-08-30T00:27:34;5.63;;;5.13;;
3359;SDS011;1693;49.602;11.046;2023-08-30T00:30:03;5.67;;;4.50;;
3359;SDS011;1693;49.602;11.046;2023-08-30T00:32:30;9.20;;;5.13;;
3359;SDS011;1693;49.602;11.046;2023-08-30T00:34:57;5.70;;;4.93;;
3359;SDS011;1693;49.602;11.046;2023-08-30T00:37:24;6.43;;;5.67;;
3359;SDS011;1693;49.602;11.046;2023-08-30T00:39:52;5.97;;;5.10;;
3359;SDS011;1693;49.602;11.046;2023-08-30T00:42:19;11.07;;;5.80;;
3359;SDS011;1693;49.602;11.046;2023-08-30T00:44:46;5.93;;;5.40;;
3359;SDS011;1693;49.602;11.046;2023-08-30T00:47:15;6.13;;;5.30;;
3359;SDS011;1693;49.602;11.046;2023-08-30T00:49:42;9.83;;;6.20;;
3359;SDS011;1693;49.602;11.046;2023-08-30T00:52:09;8.33;;;6.03;;
3359;SDS011;1693;49.602;11.046;2023-08-30T00:54:38;9.63;;;6.50;;
3359;SDS011;1693;49.602;11.046;2023-08-30T00:57:05;5.93;;;5.37;;
3359;SDS011;1693;49.602;11.046;2023-08-30T00:59:33;9.50;;;5.53;;
3359;SDS011;1693;49.602;11.046;2023-08-30T01:02:01;5.63;;;5.13;;
3359;SDS011;1693;49.602;11.046;2023-08-30T01:04:30;8.33;;;5.90;;
3359;SDS011;1693;49.602;11.046;2023-08-30T01:06:57;10.87;;;6.67;;
3359;SDS011;1693;49.602;11.046;2023-08-30T01:09:25;5.93;;;5.43;;
3359;SDS011;1693;49.602;11.046;2023-08-30T01:11:53;6.43;;;5.83;;
3359;SDS011;1693;49.602;11.046;2023-08-30T01:14:22;6.30;;;5.80;;
3359;SDS011;1693;49.602;11.046;2023-08-30T01:16:50;6.87;;;6.20;;
3359;SDS011;1693;49.602;11.046;2023-08-30T01:19:22;6.77;;;6.17;;
3359;SDS011;1693;49.602;11.046;2023-08-30T01:21:56;7.20;;;5.80;;
3359;SDS011;1693;49.602;11.046;2023-08-30T01:24:26;7.07;;;6.40;;
3359;SDS011;1693;49.602;11.046;2023-08-30T01:27:05;7.57;;;6.77;;
3359;SDS011;1693;49.602;11.046;2023-08-30T01:29:36;7.20;;;6.50;;
3359;SDS011;1693;49.602;11.046;2023-08-30T01:32:04;13.43;;;6.73;;
3359;SDS011;1693;49.602;11.046;2023-08-30T01:34:32;7.90;;;7.03;;
3359;SDS011;1693;49.602;11.046;2023-08-30T01:37:00;7.00;;;6.00;;
3359;SDS011;1693;49.602;11.046;2023-08-30T01:39:28;7.77;;;6.47;;
3359;SDS011;1693;49.602;11.046;2023-08-30T01:41:56;7.20;;;6.03;;
3359;SDS011;1693;49.602;11.046;2023-08-30T01:44:25;11.63;;;7.27;;
3359;SDS011;1693;49.602;11.046;2023-08-30T01:46:53;7.27;;;6.40;;
3359;SDS011;1693;49.602;11.046;2023-08-30T01:49:20;6.50;;;5.83;;
3359;SDS011;1693;49.602;11.046;2023-08-30T01:51:48;7.80;;;6.80;;
3359;SDS011;1693;49.602;11.046;2023-08-30T01:54:17;6.60;;;6.00;;
3359;SDS011;1693;49.602;11.046;2023-08-30T01:56:45;7.90;;;6.00;;
3359;SDS011;1693;49.602;11.046;2023-08-30T01:59:13;6.17;;;5.67;;
3359;SDS011;1693;49.602;11.046;2023-08-30T02:01:41;7.97;;;6.27;;
3359;SDS011;1693;49.602;11.046;2023-08-30T02:04:10;8.40;;;6.37;;
3359;SDS011;1693;49.602;11.046;2023-08-30T02:06:39;6.77;;;6.13;;
3359;SDS011;1693;49.602;11.046;2023-08-30T02:09:11;8.50;;;7.70;;
3359;SDS011;1693;49.602;11.046;2023-08-30T02:11:41;6.53;;;5.83;;
3359;SDS011;1693;49.602;11.046;2023-08-30T02:14:10;8.17;;;7.37;;
3359;SDS011;1693;49.602;11.046;2023-08-30T02:16:38;7.00;;;6.30;;
3359;SDS011;1693;49.602;11.046;2023-08-30T02:19:07;9.43;;;6.60;;
3359;SDS011;1693;49.602;11.046;2023-08-30T02:21:34;11.17;;;6.57;;
3359;SDS011;1693;49.602;11.046;2023-08-30T02:24:02;8.77;;;7.13;;
3359;SDS011;1693;49.602;11.046;2023-08-30T02:26:30;7.47;;;6.50;;
3359;SDS011;1693;49.602;11.046;2023-08-30T02:28:57;8.30;;;7.17;;
3359;SDS011;1693;49.602;11.046;2023-08-30T02:31:25;11.17;;;6.43;;
3359;SDS011;1693;49.602;11.046;2023-08-30T02:33:52;9.47;;;7.77;;
3359;SDS011;1693;49.602;11.046;2023-08-30T02:36:20;8.13;;;7.33;;
3359;SDS011;1693;49.602;11.046;2023-08-30T02:38:48;7.93;;;7.13;;
3359;SDS011;1693;49.602;11.046;2023-08-30T02:41:15;8.27;;;7.43;;
3359;SDS011;1693;49.602;11.046;2023-08-30T02:43:42;8.03;;;7.23;;
3359;SDS011;1693;49.602;11.046;2023-08-30T02:46:09;7.67;;;6.87;;
3359;SDS011;1693;49.602;11.046;2023-08-30T02:48:37;9.50;;;7.00;;
3359;SDS011;1693;49.602;11.046;2023-08-30T02:51:04;8.23;;;7.17;;
3359;SDS011;1693;49.602;11.046;2023-08-30T02:53:33;8.53;;;7.30;;
3359;SDS011;1693;49.602;11.046;2023-08-30T02:56:00;11.33;;;8.53;;
3359;SDS011;1693;49.602;11.046;2023-08-30T02:58:27;9.80;;;8.30;;
3359;SDS011;1693;49.602;11.046;2023-08-30T03:00:54;11.03;;;9.20;;
3359;SDS011;1693;49.602;11.046;2023-08-30T03:03:20;9.17;;;8.27;;
3359;SDS011;1693;49.602;11.046;2023-08-30T03:05:48;12.50;;;8.70;;
3359;SDS011;1693;49.602;11.046;2023-08-30T03:08:15;9.93;;;8.30;;
3359;SDS011;1693;49.602;11.046;2023-08-30T03:10:44;10.37;;;9.33;;
3359;SDS011;1693;49.602;11.046;2023-08-30T03:13:11;10.37;;;8.80;;
3359;SDS011;1693;49.602;11.046;2023-08-30T03:15:38;15.10;;;9.30;;
3359;SDS011;1693;49.602;11.046;2023-08-30T03:18:06;15.33;;;9.10;;
3359;SDS011;1693;49.602;11.046;2023-08-30T03:20:34;10.63;;;9.63;;
3359;SDS011;1693;49.602;11.046;2023-08-30T03:23:01;18.00;;;10.67;;
3359;SDS011;1693;49.602;11.046;2023-08-30T03:25:29;10.87;;;9.70;;
3359;SDS011;1693;49.602;11.046;2023-08-30T03:27:57;14.00;;;9.33;;
3359;SDS011;1693;49.602;11.046;2023-08-30T03:30:25;15.83;;;11.20;;
3359;SDS011;1693;49.602;11.046;2023-08-30T03:32:52;14.83;;;12.00;;
3359;SDS011;1693;49.602;11.046;2023-08-30T03:35:19;18.67;;;11.60;;
3359;SDS011;1693;49.602;11.046;2023-08-30T03:37:47;14.67;;;11.63;;
3359;SDS011;1693;49.602;11.046;2023-08-30T03:40:14;22.70;;;11.97;;
3359;SDS011;1693;49.602;11.046;2023-08-30T03:42:41;20.27;;;12.77;;
3359;SDS011;1693;49.602;11.046;2023-08-30T03:45:10;19.10;;;13.67;;
3359;SDS011;1693;49.602;11.046;2023-08-30T03:47:37;27.60;;;14.43;;
3359;SDS011;1693;49.602;11.046;2023-08-30T03:50:05;18.60;;;12.47;;
3359;SDS011;1693;49.602;11.046;2023-08-30T03:52:34;36.20;;;15.70;;
3359;SDS011;1693;49.602;11.046;2023-08-30T03:55:01;29.37;;;16.23;;
3359;SDS011;1693;49.602;11.046;2023-08-30T03:57:28;31.63;;;17.87;;
3359;SDS011;1693;49.602;11.046;2023-08-30T03:59:55;26.90;;;14.97;;
3359;SDS011;1693;49.602;11.046;2023-08-30T04:02:24;30.60;;;14.13;;
3359;SDS011;1693;49.602;11.046;2023-08-30T04:04:52;29.53;;;15.53;;
3359;SDS011;1693;49.602;11.046;2023-08-30T04:07:19;37.83;;;15.70;;
3359;SDS011;1693;49.602;11.046;2023-08-30T04:09:46;31.80;;;16.73;;
3359;SDS011;1693;49.602;11.046;2023-08-30T04:12:13;28.33;;;14.60;;
3359;SDS011;1693;49.602;11.046;2023-08-30T04:14:41;26.03;;;16.90;;
3359;SDS011;1693;49.602;11.046;2023-08-30T04:17:08;27.07;;;15.73;;
3359;SDS011;1693;49.602;11.046;2023-08-30T04:19:36;20.33;;;13.40;;
3359;SDS011;1693;49.602;11.046;2023-08-30T04:22:04;31.50;;;16.50;;
3359;SDS011;1693;49.602;11.046;2023-08-30T04:24:31;19.07;;;13.97;;
3359;SDS011;1693;49.602;11.046;2023-08-30T04:26:58;27.13;;;14.07;;
3359;SDS011;1693;49.602;11.046;2023-08-30T04:29:25;21.87;;;15.03;;
3359;SDS011;1693;49.602;11.046;2023-08-30T04:31:53;24.97;;;15.37;;
3359;SDS011;1693;49.602;11.046;2023-08-30T04:34:20;22.90;;;14.37;;
3359;SDS011;1693;49.602;11.046;2023-08-30T04:36:49;21.67;;;15.60;;
3359;SDS011;1693;49.602;11.046;2023-08-30T04:39:16;19.20;;;13.17;;
3359;SDS011;1693;49.602;11.046;2023-08-30T04:41:44;23.83;;;14.90;;
3359;SDS011;1693;49.602;11.046;2023-08-30T04:44:11;22.50;;;14.13;;
3359;SDS011;1693;49.602;11.046;2023-08-30T04:46:39;25.60;;;14.20;;
3359;SDS011;1693;49.602;11.046;2023-08-30T04:49:06;22.87;;;16.20;;
3359;SDS011;1693;49.602;11.046;2023-08-30T04:51:33;21.60;;;13.27;;
3359;SDS011;1693;49.602;11.046;2023-08-30T04:54:02;24.10;;;15.27;;
3359;SDS011;1693;49.602;11.046;2023-08-30T04:56:29;21.93;;;13.53;;
3359;SDS011;1693;49.602;11.046;2023-08-30T04:58:57;22.30;;;13.80;;
3359;SDS011;1693;49.602;11.046;2023-08-30T05:01:24;42.23;;;17.70;;
3359;SDS011;1693;49.602;11.046;2023-08-30T05:03:51;26.80;;;15.77;;
3359;SDS011;1693;49.602;11.046;2023-08-30T05:06:18;23.10;;;16.37;;
3359;SDS011;1693;49.602;11.046;2023-08-30T05:08:45;22.60;;;16.07;;
3359;SDS011;1693;49.602;11.046;2023-08-30T05:11:14;17.67;;;13.70;;
3359;SDS011;1693;49.602;11.046;2023-08-30T05:13:41;26.83;;;16.30;;
3359;SDS011;1693;49.602;11.046;2023-08-30T05:16:08;21.73;;;15.73;;
3359;SDS011;1693;49.602;11.046;2023-08-30T05:18:34;19.20;;;16.00;;
3359;SDS011;1693;49.602;11.046;2023-08-30T05:21:01;22.27;;;14.50;;
3359;SDS011;1693;49.602;11.046;2023-08-30T05:23:30;14.87;;;13.30;;
3359;SDS011;1693;49.602;11.046;2023-08-30T05:25:57;19.97;;;13.43;;
3359;SDS011;1693;49.602;11.046;2023-08-30T05:28:25;13.93;;;11.67;;
3359;SDS011;1693;49.602;11.046;2023-08-30T05:30:53;26.43;;;14.37;;
3359;SDS011;1693;49.602;11.046;2023-08-30T05:33:20;18.17;;;12.97;;
3359;SDS011;1693;49.602;11.046;2023-08-30T05:35:47;14.73;;;12.90;;
3359;SDS011;1693;49.602;11.046;2023-08-30T05:38:15;19.47;;;13.50;;
3359;SDS011;1693;49.602;11.046;2023-08-30T05:40:42;73.73;;;51.40;;
3359;SDS011;1693;49.602;11.046;2023-08-30T05:43:10;18.13;;;13.87;;
3359;SDS011;1693;49.602;11.046;2023-08-30T05:45:38;18.00;;;14.30;;
3359;SDS011;1693;49.602;11.046;2023-08-30T05:48:06;21.13;;;14.83;;
3359;SDS011;1693;49.602;11.046;2023-08-30T05:50:33;20.40;;;15.70;;
3359;SDS011;1693;49.602;11.046;2023-08-30T05:53:00;19.70;;;16.00;;
3359;SDS011;1693;49.602;11.046;2023-08-30T05:55:28;20.20;;;14.27;;
3359;SDS011;1693;49.602;11.046;2023-08-30T05:57:55;16.50;;;12.90;;
3359;SDS011;1693;49.602;11.046;2023-08-30T06:00:22;17.50;;;13.53;;
3359;SDS011;1693;49.602;11.046;2023-08-30T06:02:52;17.77;;;13.63;;
3359;SDS011;1693;49.602;11.046;2023-08-30T06:05:19;14.00;;;12.00;;
3359;SDS011;1693;49.602;11.046;2023-08-30T06:07:47;16.07;;;12.63;;
3359;SDS011;1693;49.602;11.046;2023-08-30T06:10:14;12.07;;;10.87;;
3359;SDS011;1693;49.602;11.046;2023-08-30T06:12:41;12.73;;;11.37;;
3359;SDS011;1693;49.602;11.046;2023-08-30T06:15:09;11.50;;;10.30;;
3359;SDS011;1693;49.602;11.046;2023-08-30T06:17:37;14.50;;;10.10;;
3359;SDS011;1693;49.602;11.046;2023-08-30T06:20:06;12.10;;;10.30;;
3359;SDS011;1693;49.602;11.046;2023-08-30T06:22:34;10.10;;;9.10;;
3359;SDS011;1693;49.602;11.046;2023-08-30T06:25:01;19.97;;;10.30;;
3359;SDS011;1693;49.602;11.046;2023-08-30T06:27:29;11.63;;;10.47;;
3359;SDS011;1693;49.602;11.046;2023-08-30T06:29:56;16.33;;;11.07;;
3359;SDS011;1693;49.602;11.046;2023-08-30T06:32:24;13.07;;;10.37;;
3359;SDS011;1693;49.602;11.046;2023-08-30T06:34:51;11.67;;;10.43;;
3359;SDS011;1693;49.602;11.046;2023-08-30T06:37:19;10.27;;;9.13;;
3359;SDS011;1693;49.602;11.046;2023-08-30T06:39:47;13.17;;;11.87;;
3359;SDS011;1693;49.602;11.046;2023-08-30T06:42:14;14.83;;;10.23;;
3359;SDS011;1693;49.602;11.046;2023-08-30T06:44:41;19.53;;;10.27;;
3359;SDS011;1693;49.602;11.046;2023-08-30T06:47:08;10.93;;;9.67;;
3359;SDS011;1693;49.602;11.046;2023-08-30T06:49:36;11.87;;;9.97;;
3359;SDS011;1693;49.602;11.046;2023-08-30T06:52:03;10.57;;;9.67;;
3359;SDS011;1693;49.602;11.046;2023-08-30T06:54:33;9.43;;;7.93;;
3359;SDS011;1693;49.602;11.046;2023-08-30T06:57:01;12.20;;;11.00;;
3359;SDS011;1693;49.602;11.046;2023-08-30T06:59:28;10.53;;;9.43;;
3359;SDS011;1693;49.602;11.046;2023-08-30T07:01:56;9.90;;;9.00;;
3359;SDS011;1693;49.602;11.046;2023-08-30T07:04:23;13.90;;;10.47;;
3359;SDS011;1693;49.602;11.046;2023-08-30T07:06:50;15.07;;;11.33;;
3359;SDS011;1693;49.602;11.046;2023-08-30T07:09:18;16.20;;;10.00;;
3359;SDS011;1693;49.602;11.046;2023-08-30T07:11:49;10.97;;;9.97;;
3359;SDS011;1693;49.602;11.046;2023-08-30T07:14:17;13.13;;;11.87;;
3359;SDS011;1693;49.602;11.046;2023-08-30T07:16:45;12.23;;;11.03;;
3359;SDS011;1693;49.602;11.046;2023-08-30T07:19:15;11.33;;;10.07;;
3359;SDS011;1693;49.602;11.046;2023-08-30T07:21:43;14.87;;;12.30;;
3359;SDS011;1693;49.602;11.046;2023-08-30T07:24:10;14.33;;;11.03;;
3359;SDS011;1693;49.602;11.046;2023-08-30T07:26:38;11.97;;;10.77;;
3359;SDS011;1693;49.602;11.046;2023-08-30T07:29:10;15.40;;;13.90;;
3359;SDS011;1693;49.602;11.046;2023-08-30T07:31:37;16.70;;;14.07;;
3359;SDS011;1693;49.602;11.046;2023-08-30T07:34:06;14.27;;;12.97;;
3359;SDS011;1693;49.602;11.046;2023-08-30T07:36:34;11.50;;;10.30;;
3359;SDS011;1693;49.602;11.046;2023-08-30T07:39:04;15.73;;;11.57;;
3359;SDS011;1693;49.602;11.046;2023-08-30T07:41:33;12.43;;;11.13;;
3359;SDS011;1693;49.602;11.046;2023-08-30T07:44:01;15.10;;;13.70;;
3359;SDS011;1693;49.602;11.046;2023-08-30T07:46:29;15.93;;;12.30;;
3359;SDS011;1693;49.602;11.046;2023-08-30T07:48:57;11.90;;;10.70;;
3359;SDS011;1693;49.602;11.046;2023-08-30T07:51:24;14.33;;;12.90;;
3359;SDS011;1693;49.602;11.046;2023-08-30T07:53:51;12.93;;;11.63;;
3359;SDS011;1693;49.602;11.046;2023-08-30T07:56:19;13.80;;;12.27;;
3359;SDS011;1693;49.602;11.046;2023-08-30T07:58:46;19.47;;;12.50;;
3359;SDS011;1693;49.602;11.046;2023-08-30T08:01:13;12.47;;;11.30;;
3359;SDS011;1693;49.602;11.046;2023-08-30T08:03:42;11.43;;;10.30;;
3359;SDS011;1693;49.602;11.046;2023-08-30T08:06:09;10.70;;;9.60;;
3359;SDS011;1693;49.602;11.046;2023-08-30T08:08:36;16.97;;;9.30;;
3359;SDS011;1693;49.602;11.046;2023-08-30T08:11:04;12.63;;;9.17;;
3359;SDS011;1693;49.602;11.046;2023-08-30T08:13:32;9.37;;;8.10;;
3359;SDS011;1693;49.602;11.046;2023-08-30T08:15:59;11.67;;;9.30;;
3359;SDS011;1693;49.602;11.046;2023-08-30T08:18:26;10.57;;;9.57;;
3359;SDS011;1693;49.602;11.046;2023-08-30T08:20:55;11.23;;;9.37;;
3359;SDS011;1693;49.602;11.046;2023-08-30T08:23:22;11.47;;;9.70;;
3359;SDS011;1693;49.602;11.046;2023-08-30T08:25:49;10.33;;;9.00;;
3359;SDS011;1693;49.602;11.046;2023-08-30T08:28:16;9.67;;;8.87;;
3359;SDS011;1693;49.602;11.046;2023-08-30T08:30:44;9.03;;;8.10;;
3359;SDS011;1693;49.602;11.046;2023-08-30T08:33:14;8.70;;;7.90;;
3359;SDS011;1693;49.602;11.046;2023-08-30T08:35:42;11.00;;;8.60;;
3359;SDS011;1693;49.602;11.046;2023-08-30T08:38:11;9.63;;;8.73;;
3359;SDS011;1693;49.602;11.046;2023-08-30T08:40:38;9.10;;;8.30;;
3359;SDS011;1693;49.602;11.046;2023-08-30T08:43:05;10.63;;;9.60;;
3359;SDS011;1693;49.602;11.046;2023-08-30T08:45:34;9.30;;;8.23;;
3359;SDS011;1693;49.602;11.046;2023-08-30T08:48:02;15.20;;;11.00;;
3359;SDS011;1693;49.602;11.046;2023-08-30T08:50:30;12.57;;;10.60;;
3359;SDS011;1693;49.602;11.046;2023-08-30T08:52:58;12.53;;;8.60;;
3359;SDS011;1693;49.602;11.046;2023-08-30T08:55:28;7.50;;;6.90;;
3359;SDS011;1693;49.602;11.046;2023-08-30T08:57:56;9.07;;;8.03;;
3359;SDS011;1693;49.602;11.046;2023-08-30T09:00:23;9.50;;;8.60;;
3359;SDS011;1693;49.602;11.046;2023-08-30T09:02:51;9.83;;;8.00;;
3359;SDS011;1693;49.602;11.046;2023-08-30T09:05:20;11.57;;;9.03;;
3359;SDS011;1693;49.602;11.046;2023-08-30T09:07:48;7.27;;;6.53;;
3359;SDS011;1693;49.602;11.046;2023-08-30T09:10:19;7.30;;;6.10;;
3359;SDS011;1693;49.602;11.046;2023-08-30T09:12:48;9.10;;;8.20;;
3359;SDS011;1693;49.602;11.046;2023-08-30T09:15:15;10.50;;;8.47;;
3359;SDS011;1693;49.602;11.046;2023-08-30T09:17:43;11.53;;;8.03;;
3359;SDS011;1693;49.602;11.046;2023-08-30T09:20:12;9.33;;;7.70;;
3359;SDS011;1693;49.602;11.046;2023-08-30T09:22:39;8.53;;;7.60;;
3359;SDS011;1693;49.602;11.046;2023-08-30T09:25:08;6.97;;;6.27;;
3359;SDS011;1693;49.602;11.046;2023-08-30T09:27:35;8.60;;;7.43;;
3359;SDS011;1693;49.602;11.046;2023-08-30T09:30:08;7.77;;;6.30;;
3359;SDS011;1693;49.602;11.046;2023-08-30T09:32:40;6.60;;;5.90;;
3359;SDS011;1693;49.602;11.046;2023-08-30T09:35:13;8.70;;;7.80;;
3359;SDS011;1693;49.602;11.046;2023-08-30T09:37:41;7.10;;;6.23;;
3359;SDS011;1693;49.602;11.046;2023-08-30T09:40:18;7.10;;;6.43;;
3359;SDS011;1693;49.602;11.046;2023-08-30T09:42:45;8.63;;;7.63;;
3359;SDS011;1693;49.602;11.046;2023-08-30T09:45:19;6.97;;;6.27;;
3359;SDS011;1693;49.602;11.046;2023-08-30T09:47:47;6.07;;;5.23;;
3359;SDS011;1693;49.602;11.046;2023-08-30T09:50:16;6.57;;;5.70;;
3359;SDS011;1693;49.602;11.046;2023-08-30T09:52:46;5.93;;;5.33;;
3359;SDS011;1693;49.602;11.046;2023-08-30T09:55:16;5.83;;;5.23;;
3359;SDS011;1693;49.602;11.046;2023-08-30T09:57:47;6.60;;;5.90;;
3359;SDS011;1693;49.602;11.046;2023-08-30T10:00:22;6.13;;;5.53;;
3359;SDS011;1693;49.602;11.046;2023-08-30T10:02:52;6.60;;;6.00;;
3359;SDS011;1693;49.602;11.046;2023-08-30T10:05:21;5.80;;;5.20;;
3359;SDS011;1693;49.602;11.046;2023-08-30T10:07:50;6.53;;;5.97;;
3359;SDS011;1693;49.602;11.046;2023-08-30T10:10:21;7.10;;;5.73;;
3359;SDS011;1693;49.602;11.046;2023-08-30T10:12:51;8.10;;;7.30;;
3359;SDS011;1693;49.602;11.046;2023-08-30T10:15:22;7.80;;;6.33;;
3359;SDS011;1693;49.602;11.046;2023-08-30T10:17:51;7.93;;;6.80;;
3359;SDS011;1693;49.602;11.046;2023-08-30T10:20:19;7.90;;;7.20;;
3359;SDS011;1693;49.602;11.046;2023-08-30T10:22:53;6.97;;;6.30;;
3359;SDS011;1693;49.602;11.046;2023-08-30T10:25:22;7.17;;;6.43;;
3359;SDS011;1693;49.602;11.046;2023-08-30T10:27:57;11.90;;;7.63;;
3359;SDS011;1693;49.602;11.046;2023-08-30T10:30:34;8.13;;;7.33;;
3359;SDS011;1693;49.602;11.046;2023-08-30T10:33:02;10.13;;;7.23;;
3359;SDS011;1693;49.602;11.046;2023-08-30T10:35:48;9.80;;;8.80;;
3359;SDS011;1693;49.602;11.046;2023-08-30T10:38:24;8.73;;;7.50;;
3359;SDS011;1693;49.602;11.046;2023-08-30T10:40:53;8.43;;;7.53;;
3359;SDS011;1693;49.602;11.046;2023-08-30T10:43:30;9.20;;;8.30;;
3359;SDS011;1693;49.602;11.046;2023-08-30T10:46:02;7.17;;;6.57;;
3359;SDS011;1693;49.602;11.046;2023-08-30T10:48:38;7.80;;;7.00;;
3359;SDS011;1693;49.602;11.046;2023-08-30T10:51:07;9.53;;;8.27;;
3359;SDS011;1693;49.602;11.046;2023-08-30T10:53:43;7.07;;;5.80;;
3359;SDS011;1693;49.602;11.046;2023-08-30T10:56:26;7.93;;;7.10;;
3359;SDS011;1693;49.602;11.046;2023-08-30T10:58:54;9.07;;;6.67;;
3359;SDS011;1693;49.602;11.046;2023-08-30T11:01:22;6.27;;;5.63;;
3359;SDS011;1693;49.602;11.046;2023-08-30T11:03:50;6.60;;;5.70;;
3359;SDS011;1693;49.602;11.046;2023-08-30T11:06:18;7.90;;;7.20;;
3359;SDS011;1693;49.602;11.046;2023-08-30T11:08:47;5.57;;;4.93;;
3359;SDS011;1693;49.602;11.046;2023-08-30T11:11:14;6.27;;;5.67;;
3359;SDS011;1693;49.602;11.046;2023-08-30T11:13:41;4.43;;;4.03;;
3359;SDS011;1693;49.602;11.046;2023-08-30T11:16:08;6.07;;;5.33;;
3359;SDS011;1693;49.602;11.046;2023-08-30T11:18:38;6.37;;;5.30;;
3359;SDS011;1693;49.602;11.046;2023-08-30T11:21:07;7.53;;;5.43;;
3359;SDS011;1693;49.602;11.046;2023-08-30T11:23:34;6.67;;;6.07;;
3359;SDS011;1693;49.602;11.046;2023-08-30T11:26:01;6.80;;;6.23;;
3359;SDS011;1693;49.602;11.046;2023-08-30T11:28:30;6.87;;;6.17;;
3359;SDS011;1693;49.602;11.046;2023-08-30T11:30:57;8.10;;;4.93;;
3359;SDS011;1693;49.602;11.046;2023-08-30T11:33:24;6.53;;;5.93;;
3359;SDS011;1693;49.602;11.046;2023-08-30T11:35:53;6.57;;;5.93;;
3359;SDS011;1693;49.602;11.046;2023-08-30T11:38:20;7.07;;;6.47;;
3359;SDS011;1693;49.602;11.046;2023-08-30T11:40:49;7.07;;;6.47;;
3359;SDS011;1693;49.602;11.046;2023-08-30T11:43:18;7.50;;;6.77;;
3359;SDS011;1693;49.602;11.046;2023-08-30T11:45:55;7.07;;;6.00;;
3359;SDS011;1693;49.602;11.046;2023-08-30T11:48:23;6.40;;;5.90;;
3359;SDS011;1693;49.602;11.046;2023-08-30T11:50:54;7.23;;;6.53;;
3359;SDS011;1693;49.602;11.046;2023-08-30T11:53:26;9.03;;;8.03;;
3359;SDS011;1693;49.602;11.046;2023-08-30T11:56:16;9.03;;;8.23;;
3359;SDS011;1693;49.602;11.046;2023-08-30T11:59:17;10.20;;;8.97;;
3359;SDS011;1693;49.602;11.046;2023-08-30T12:01:45;10.17;;;9.33;;
3359;SDS011;1693;49.602;11.046;2023-08-30T12:04:13;8.30;;;7.60;;
3359;SDS011;1693;49.602;11.046;2023-08-30T12:06:41;8.20;;;7.40;;
3359;SDS011;1693;49.602;11.046;2023-08-30T12:09:11;7.77;;;6.97;;
3359;SDS011;1693;49.602;11.046;2023-08-30T12:11:38;7.40;;;6.70;;
3359;SDS011;1693;49.602;11.046;2023-08-30T12:14:05;8.50;;;6.60;;
3359;SDS011;1693;49.602;11.046;2023-08-30T12:16:32;6.73;;;6.13;;
3359;SDS011;1693;49.602;11.046;2023-08-30T12:19:07;8.20;;;7.30;;
3359;SDS011;1693;49.602;11.046;2023-08-30T12:21:38;6.83;;;6.20;;
3359;SDS011;1693;49.602;11.046;2023-08-30T12:24:08;7.00;;;6.40;;
3359;SDS011;1693;49.602;11.046;2023-08-30T12:26:35;6.77;;;6.10;;
3359;SDS011;1693;49.602;11.046;2023-08-30T12:29:03;7.40;;;6.23;;
3359;SDS011;1693;49.602;11.046;2023-08-30T12:31:31;9.30;;;5.80;;
3359;SDS011;1693;49.602;11.046;2023-08-30T12:33:58;5.70;;;5.20;;
3359;SDS011;1693;49.602;11.046;2023-08-30T12:36:25;6.70;;;6.10;;
3359;SDS011;1693;49.602;11.046;2023-08-30T12:38:53;4.87;;;4.40;;
3359;SDS011;1693;49.602;11.046;2023-08-30T12:41:22;6.50;;;4.80;;
3359;SDS011;1693;49.602;11.046;2023-08-30T12:43:49;6.60;;;6.00;;
3359;SDS011;1693;49.602;11.046;2023-08-30T12:46:18;4.83;;;4.30;;
3359;SDS011;1693;49.602;11.046;2023-08-30T12:48:45;6.40;;;5.00;;
3359;SDS011;1693;49.602;11.046;2023-08-30T12:51:13;8.10;;;5.50;;
3359;SDS011;1693;49.602;11.046;2023-08-30T12:53:40;19.27;;;17.10;;
3359;SDS011;1693;49.602;11.046;2023-08-30T12:56:07;7.00;;;5.30;;
3359;SDS011;1693;49.602;11.046;2023-08-30T12:58:36;13.73;;;5.43;;
3359;SDS011;1693;49.602;11.046;2023-08-30T13:01:03;7.67;;;5.23;;
3359;SDS011;1693;49.602;11.046;2023-08-30T13:03:30;6.50;;;5.90;;
3359;SDS011;1693;49.602;11.046;2023-08-30T13:05:57;6.17;;;5.53;;
3359;SDS011;1693;49.602;11.046;2023-08-30T13:08:24;6.53;;;5.93;;
3359;SDS011;1693;49.602;11.046;2023-08-30T13:10:53;6.90;;;6.20;;
3359;SDS011;1693;49.602;11.046;2023-08-30T13:13:20;6.43;;;5.73;;
3359;SDS011;1693;49.602;11.046;2023-08-30T13:15:49;6.30;;;5.70;;
3359;SDS011;1693;49.602;11.046;2023-08-30T13:18:17;6.60;;;6.00;;
3359;SDS011;1693;49.602;11.046;2023-08-30T13:20:44;6.10;;;5.60;;
3359;SDS011;1693;49.602;11.046;2023-08-30T13:23:11;5.77;;;5.17;;
3359;SDS011;1693;49.602;11.046;2023-08-30T13:25:39;5.20;;;4.30;;
3359;SDS011;1693;49.602;11.046;2023-08-30T13:28:06;7.63;;;5.47;;
3359;SDS011;1693;49.602;11.046;2023-08-30T13:30:34;4.57;;;4.17;;
3359;SDS011;1693;49.602;11.046;2023-08-30T13:33:04;4.60;;;4.20;;
3359;SDS011;1693;49.602;11.046;2023-08-30T13:35:31;4.80;;;4.27;;
3359;SDS011;1693;49.602;11.046;2023-08-30T13:37:58;7.30;;;4.77;;
3359;SDS011;1693;49.602;11.046;2023-08-30T13:40:25;4.90;;;4.47;;
3359;SDS011;1693;49.602;11.046;2023-08-30T13:42:52;6.40;;;4.30;;
3359;SDS011;1693;49.602;11.046;2023-08-30T13:45:19;6.10;;;3.70;;
3359;SDS011;1693;49.602;11.046;2023-08-30T13:47:46;5.70;;;4.50;;
3359;SDS011;1693;49.602;11.046;2023-08-30T13:50:18;5.77;;;4.50;;
3359;SDS011;1693;49.602;11.046;2023-08-30T13:52:45;3.97;;;3.57;;
3359;SDS011;1693;49.602;11.046;2023-08-30T13:55:12;4.27;;;3.83;;
3359;SDS011;1693;49.602;11.046;2023-08-30T13:57:39;5.70;;;4.30;;
3359;SDS011;1693;49.602;11.046;2023-08-30T14:00:08;4.63;;;4.07;;
3359;SDS011;1693;49.602;11.046;2023-08-30T14:02:36;5.83;;;3.80;;
3359;SDS011;1693;49.602;11.046;2023-08-30T14:05:03;5.60;;;4.23;;
3359;SDS011;1693;49.602;11.046;2023-08-30T14:07:32;5.33;;;4.90;;
3359;SDS011;1693;49.602;11.046;2023-08-30T14:10:00;4.33;;;3.93;;
3359;SDS011;1693;49.602;11.046;2023-08-30T14:12:27;4.43;;;4.03;;
3359;SDS011;1693;49.602;11.046;2023-08-30T14:14:54;4.30;;;3.90;;
3359;SDS011;1693;49.602;11.046;2023-08-30T14:17:20;4.40;;;4.03;;
3359;SDS011;1693;49.602;11.046;2023-08-30T14:19:47;6.10;;;4.07;;
3359;SDS011;1693;49.602;11.046;2023-08-30T14:22:14;4.53;;;4.13;;
3359;SDS011;1693;49.602;11.046;2023-08-30T14:24:48;4.40;;;4.00;;
3359;SDS011;1693;49.602;11.046;2023-08-30T14:27:16;6.83;;;5.07;;
3359;SDS011;1693;49.602;11.046;2023-08-30T14:29:43;3.60;;;3.30;;
3359;SDS011;1693;49.602;11.046;2023-08-30T14:32:11;3.10;;;2.80;;
3359;SDS011;1693;49.602;11.046;2023-08-30T14:34:38;4.03;;;3.00;;
3359;SDS011;1693;49.602;11.046;2023-08-30T14:37:05;3.70;;;3.37;;
3359;SDS011;1693;49.602;11.046;2023-08-30T14:39:33;3.97;;;3.53;;
3359;SDS011;1693;49.602;11.046;2023-08-30T14:42:03;4.30;;;3.90;;
3359;SDS011;1693;49.602;11.046;2023-08-30T14:44:30;3.40;;;3.10;;
3359;SDS011;1693;49.602;11.046;2023-08-30T14:46:57;11.47;;;3.83;;
3359;SDS011;1693;49.602;11.046;2023-08-30T14:49:24;3.90;;;3.50;;
3359;SDS011;1693;49.602;11.046;2023-08-30T14:51:51;3.70;;;3.00;;
3359;SDS011;1693;49.602;11.046;2023-08-30T14:54:18;3.30;;;3.00;;
3359;SDS011;1693;49.602;11.046;2023-08-30T14:56:45;2.83;;;2.60;;
3359;SDS011;1693;49.602;11.046;2023-08-30T14:59:15;3.07;;;2.87;;